Terminal Aerodrome Forecast
Issued by NWS

Home | Current Version | Previous Version | Text Only | Print | Product List | Glossary Off
Versions: 1 2 3 4 5 6 7 8 9 10 11 12 13 14 15 16 17 18

121
FTUS43 KMPX 271743
TAFAXN
TAF
KAXN 271743Z 2718/2818 24010KT P6SM SCT060 BKN150
     FM272000 24014G22KT P6SM SCT060 BKN150
     FM280100 24007KT P6SM BKN100
     FM281000 29009KT P6SM SCT100
     FM281500 30016G24KT P6SM SCT040=

USA.gov is the U.S. government's official web portal to all federal, state and local government web resources and services.